createdAt,value
2019-04-10T00:00:41.157Z,57.65
2019-04-10T00:02:41.910Z,57.50
2019-04-10T00:04:43.539Z,57.56
2019-04-10T00:06:45.861Z,57.67
2019-04-10T00:08:46.858Z,57.67
2019-04-10T00:10:48.471Z,57.68
2019-04-10T00:12:50.073Z,58.10
2019-04-10T00:14:52.535Z,58.04
2019-04-10T00:16:54.262Z,58.30
2019-04-10T00:18:56.036Z,58.28
2019-04-10T00:20:56.840Z,58.27
2019-04-10T00:22:58.379Z,58.25
2019-04-10T00:25:00.182Z,57.55
2019-04-10T00:27:02.087Z,57.41
2019-04-10T00:29:03.629Z,57.09
2019-04-10T00:31:05.312Z,57.37
2019-04-10T00:33:06.720Z,56.93
2019-04-10T00:35:08.350Z,57.24
2019-04-10T00:37:21.267Z,57.29
2019-04-10T00:39:12.566Z,57.28
2019-04-10T00:41:14.186Z,57.32
2019-04-10T00:43:14.955Z,57.43
2019-04-10T00:45:17.497Z,57.18
2019-04-10T00:47:19.121Z,57.24
2019-04-10T00:49:19.904Z,56.94
2019-04-10T00:51:21.505Z,57.08
2019-04-10T00:53:23.275Z,57.03
2019-04-10T00:55:25.789Z,56.88
2019-04-10T00:57:27.445Z,56.86
2019-04-10T00:59:28.240Z,56.86
2019-04-10T01:01:29.871Z,57.08
2019-04-10T01:03:38.147Z,56.99
2019-04-10T01:05:39.639Z,57.05
2019-04-10T01:07:43.166Z,56.93
2019-04-10T01:09:42.235Z,57.04
2019-04-10T01:11:43.897Z,57.13
2019-04-10T01:13:45.538Z,57.02
2019-04-10T01:15:47.137Z,56.95
2019-04-10T01:17:48.789Z,56.98
2019-04-10T01:19:50.376Z,57.09
2019-04-10T01:21:52.753Z,56.96
2019-04-10T01:23:53.622Z,57.07
2019-04-10T01:25:55.241Z,57.00
2019-04-10T01:27:56.867Z,56.80
2019-04-10T01:29:58.483Z,56.93
2019-04-10T01:32:00.101Z,57.15
2019-04-10T01:34:01.725Z,56.97
2019-04-10T01:36:03.334Z,56.90
2019-04-10T01:38:06.432Z,57.08
2019-04-10T01:40:06.688Z,57.35
2019-04-10T01:42:08.307Z,57.54
2019-04-10T01:44:11.045Z,57.41
2019-04-10T01:46:11.515Z,57.36
2019-04-10T01:48:13.130Z,57.38
2019-04-10T01:50:14.724Z,57.26
2019-04-10T01:52:17.207Z,57.16
2019-04-10T01:54:17.985Z,57.08
2019-04-10T01:56:25.045Z,56.92
2019-04-10T01:58:21.250Z,57.15
2019-04-10T02:00:23.693Z,57.09
2019-04-10T02:02:25.402Z,57.43
2019-04-10T02:04:26.867Z,57.22
2019-04-10T02:06:29.390Z,57.20
2019-04-10T02:08:30.164Z,57.02
2019-04-10T02:10:32.093Z,57.02
2019-04-10T02:12:33.420Z,57.09
2019-04-10T02:14:35.025Z,56.94
2019-04-10T02:16:36.609Z,56.95
2019-04-10T02:18:38.202Z,56.89
2019-04-10T02:20:39.975Z,56.71
2019-04-10T02:22:41.588Z,57.21
2019-04-10T02:24:43.144Z,57.18
2019-04-10T02:26:45.656Z,57.35
2019-04-10T02:28:47.011Z,57.20
2019-04-10T02:30:48.100Z,57.08
2019-04-10T02:32:50.792Z,57.15
2019-04-10T02:34:52.984Z,57.04
2019-04-10T02:36:53.095Z,57.21
2019-04-10T02:39:08.511Z,57.31
2019-04-10T02:40:57.524Z,57.32
2019-04-10T02:42:59.030Z,57.41
2019-04-10T02:44:59.762Z,57.52
2019-04-10T02:47:02.090Z,57.47
2019-04-10T02:49:04.048Z,57.45
2019-04-10T02:51:05.511Z,57.37
2019-04-10T02:53:07.833Z,57.85
2019-04-10T02:55:09.847Z,57.58
2019-04-10T02:57:09.683Z,57.73
2019-04-10T02:59:11.361Z,57.47
2019-04-10T03:01:13.502Z,57.57
2019-04-10T03:03:15.867Z,57.58
2019-04-10T03:05:17.653Z,57.64
2019-04-10T03:07:17.937Z,57.72
2019-04-10T03:09:37.082Z,57.47
2019-04-10T03:11:22.214Z,57.66
2019-04-10T03:13:23.914Z,57.75
2019-04-10T03:15:25.217Z,57.63
2019-04-10T03:17:26.244Z,57.78
2019-04-10T03:19:27.870Z,57.81
2019-04-10T03:21:29.465Z,57.83
2019-04-10T03:23:31.624Z,57.66
2019-04-10T03:25:33.033Z,57.62
2019-04-10T03:27:34.505Z,57.58
2019-04-10T03:29:36.103Z,57.38
2019-04-10T03:31:39.190Z,57.48
2019-04-10T03:33:47.109Z,57.41
2019-04-10T03:35:45.227Z,56.91
2019-04-10T03:37:46.718Z,56.81
2019-04-10T03:39:48.967Z,56.52
2019-04-10T03:41:50.534Z,56.73
2019-04-10T03:43:52.223Z,56.98
2019-04-10T03:45:53.275Z,57.00
2019-04-10T03:47:55.763Z,57.03
2019-04-10T03:49:56.569Z,56.99
2019-04-10T03:51:58.184Z,57.19
2019-04-10T03:53:59.814Z,57.25
2019-04-10T03:56:01.416Z,57.38
2019-04-10T03:58:03.031Z,57.23
2019-04-10T04:00:05.657Z,57.31
2019-04-10T04:04:15.374Z,57.41
2019-04-10T04:06:16.000Z,57.34
2019-04-10T04:08:17.593Z,57.26
2019-04-10T04:10:20.399Z,57.31
2019-04-10T04:12:20.852Z,57.32
2019-04-10T04:14:22.463Z,57.33
2019-04-10T04:16:24.715Z,57.34
2019-04-10T04:18:26.858Z,57.40
2019-04-10T04:20:27.421Z,57.20
2019-04-10T04:22:29.037Z,57.38
2019-04-10T04:24:31.528Z,57.42
2019-04-10T04:26:32.267Z,57.60
2019-04-10T04:28:34.246Z,57.56
2019-04-10T04:30:36.028Z,57.50
2019-04-10T04:32:37.950Z,57.31
2019-04-10T04:34:38.929Z,57.36
2019-04-10T04:36:40.884Z,57.20
2019-04-10T04:38:43.168Z,57.42
2019-04-10T04:40:44.229Z,57.27
2019-04-10T04:42:45.533Z,57.20
2019-04-10T04:44:47.763Z,57.07
2019-04-10T04:46:48.853Z,57.00
2019-04-10T04:48:50.464Z,57.04
2019-04-10T04:50:52.292Z,56.96
2019-04-10T04:52:53.792Z,57.07
2019-04-10T04:54:55.413Z,56.98
2019-04-10T04:56:58.035Z,56.80
2019-04-10T04:58:59.451Z,56.72
2019-04-10T05:01:00.360Z,56.75
2019-04-10T05:03:01.963Z,56.71
2019-04-10T05:05:04.473Z,56.77
2019-04-10T05:07:06.245Z,56.63
2019-04-10T05:09:06.980Z,56.84
2019-04-10T05:11:09.762Z,56.97
2019-04-10T05:13:10.339Z,57.04
2019-04-10T05:15:12.868Z,56.97
2019-04-10T05:17:15.607Z,57.06
2019-04-10T05:19:15.259Z,57.18
2019-04-10T05:21:17.113Z,57.17
2019-04-10T05:23:18.512Z,57.21
2019-04-10T05:25:21.068Z,57.23
2019-04-10T05:27:22.586Z,57.13
2019-04-10T05:29:23.491Z,57.04
2019-04-10T05:31:25.583Z,57.34
2019-04-10T05:33:26.859Z,57.59
2019-04-10T05:35:28.453Z,57.90
2019-04-10T05:37:30.045Z,57.71
2019-04-10T05:39:40.542Z,57.77
2019-04-10T05:41:33.598Z,57.74
2019-04-10T05:43:36.025Z,57.81
2019-04-10T05:45:38.005Z,57.95
2019-04-10T05:47:39.144Z,57.60
2019-04-10T05:49:41.467Z,57.76
2019-04-10T05:51:43.598Z,57.62
2019-04-10T05:53:44.908Z,57.71
2019-04-10T05:55:45.841Z,57.43
2019-04-10T05:57:47.462Z,57.56
2019-04-10T05:59:49.097Z,57.44
2019-04-10T06:01:50.686Z,57.53
2019-04-10T06:03:53.174Z,57.63
2019-04-10T06:05:56.330Z,57.51
2019-04-10T06:07:57.250Z,57.45
2019-04-10T06:10:03.135Z,57.32
2019-04-10T06:12:00.150Z,57.27
2019-04-10T06:14:01.721Z,57.35
2019-04-10T06:16:03.546Z,57.44
2019-04-10T06:18:05.045Z,57.45
2019-04-10T06:20:07.126Z,57.38
2019-04-10T06:22:09.797Z,57.49
2019-04-10T06:24:10.002Z,57.30
2019-04-10T06:26:12.638Z,57.28
2019-04-10T06:28:13.250Z,57.18
2019-04-10T06:30:15.440Z,57.14
2019-04-10T06:32:17.048Z,57.33
2019-04-10T06:34:18.795Z,57.37
2019-04-10T06:36:19.856Z,57.19
2019-04-10T06:38:21.472Z,57.39
2019-04-10T06:40:25.803Z,57.55
2019-04-10T06:42:24.889Z,57.68
2019-04-10T06:44:26.502Z,57.62
2019-04-10T06:46:28.747Z,57.29
2019-04-10T06:48:30.440Z,57.11
2019-04-10T06:50:32.117Z,56.90
2019-04-10T06:52:34.553Z,57.10
2019-04-10T06:54:36.376Z,56.37
2019-04-10T06:56:37.527Z,56.11
2019-04-10T06:58:38.788Z,56.50
2019-04-10T07:00:41.020Z,56.44
2019-04-10T07:02:42.345Z,56.57
2019-04-10T07:04:49.860Z,56.59
2019-04-10T07:06:55.950Z,56.78
2019-04-10T07:08:50.863Z,56.67
2019-04-10T07:10:54.642Z,56.77
2019-04-10T07:12:51.293Z,56.88
2019-04-10T07:14:56.498Z,56.96
2019-04-10T07:16:54.780Z,56.88
2019-04-10T07:18:58.316Z,56.91
2019-04-10T07:20:59.885Z,56.81
2019-04-10T07:22:59.582Z,57.14
2019-04-10T07:25:00.556Z,56.91
2019-04-10T07:27:03.509Z,56.86
2019-04-10T07:29:04.597Z,56.86
2019-04-10T07:31:08.195Z,56.75
2019-04-10T07:33:07.632Z,56.89
2019-04-10T07:35:08.950Z,56.63
2019-04-10T07:37:12.075Z,56.83
2019-04-10T07:39:13.053Z,56.41
2019-04-10T07:41:19.741Z,56.71
2019-04-10T07:43:15.491Z,56.70
2019-04-10T07:45:17.124Z,56.31
2019-04-10T07:47:19.618Z,56.58
2019-04-10T07:49:21.193Z,56.48
2019-04-10T07:51:22.275Z,56.53
2019-04-10T07:53:24.646Z,56.55
2019-04-10T07:55:25.432Z,56.53
2019-04-10T07:57:27.051Z,56.50
2019-04-10T07:59:29.232Z,56.47
2019-04-10T08:01:31.191Z,56.42
2019-04-10T08:03:33.099Z,56.31
2019-04-10T08:05:33.860Z,56.24
2019-04-10T08:07:37.740Z,56.14
2019-04-10T08:09:37.681Z,56.06
2019-04-10T08:11:38.852Z,55.99
2019-04-10T08:13:40.761Z,55.92
2019-04-10T08:15:43.139Z,55.88
2019-04-10T08:17:44.440Z,55.82
2019-04-10T08:19:45.504Z,55.77
2019-04-10T08:21:47.121Z,55.67
2019-04-10T08:23:48.783Z,55.59
2019-04-10T08:25:51.568Z,55.47
2019-04-10T08:27:52.260Z,55.40
2019-04-10T08:29:54.748Z,55.34
2019-04-10T08:31:55.991Z,55.31
2019-04-10T08:33:57.035Z,55.31
2019-04-10T08:35:58.991Z,55.20
2019-04-10T08:38:01.269Z,40.58
2019-04-10T08:40:03.081Z,39.56
2019-04-10T08:42:03.694Z,38.81
2019-04-10T08:44:06.404Z,42.72
2019-04-10T08:46:06.937Z,42.12
2019-04-10T08:48:08.553Z,42.36
2019-04-10T08:52:24.174Z,44.07
2019-04-10T08:56:40.702Z,45.20
2019-04-10T08:58:41.320Z,45.51
2019-04-10T09:00:42.887Z,46.17
2019-04-10T09:02:44.493Z,46.53
2019-04-10T09:04:46.839Z,46.87
2019-04-10T09:06:47.825Z,47.15
2019-04-10T09:08:49.433Z,47.32
2019-04-10T09:10:51.033Z,47.45
2019-04-10T09:12:54.533Z,47.50
2019-04-10T09:14:54.317Z,47.65
2019-04-10T09:16:55.921Z,47.64
2019-04-10T09:18:57.891Z,47.73
2019-04-10T09:20:59.431Z,47.73
2019-04-10T09:23:18.654Z,48.06
2019-04-10T09:25:02.848Z,48.18
2019-04-10T09:27:04.690Z,48.30
2019-04-10T09:29:06.728Z,48.47
2019-04-10T09:31:07.494Z,48.61
2019-04-10T09:33:16.886Z,48.61
2019-04-10T09:35:12.017Z,48.67
2019-04-10T09:37:13.479Z,48.83
2019-04-10T09:39:14.926Z,48.87
2019-04-10T09:41:15.812Z,49.01
2019-04-10T09:43:17.760Z,49.22
2019-04-10T09:45:19.977Z,49.38
2019-04-10T09:47:20.740Z,49.62
2019-04-10T09:49:33.841Z,49.46
2019-04-10T09:51:24.031Z,49.63
2019-04-10T09:53:26.638Z,49.67
2019-04-10T09:55:27.712Z,48.30
2019-04-10T09:57:28.960Z,47.46
2019-04-10T09:59:35.448Z,48.16
2019-04-10T10:01:32.217Z,48.46
2019-04-10T10:03:34.576Z,48.39
2019-04-10T10:05:35.492Z,48.04
2019-04-10T10:07:37.147Z,48.20
2019-04-10T10:09:38.748Z,48.06
2019-04-10T10:11:40.377Z,48.34
2019-04-10T10:13:41.972Z,47.95
2019-04-10T10:15:43.564Z,48.45
2019-04-10T10:17:45.160Z,48.48
2019-04-10T10:19:46.762Z,48.11
2019-04-10T10:21:48.395Z,48.46
2019-04-10T10:23:50.016Z,48.29
2019-04-10T10:25:51.641Z,49.27
2019-04-10T10:27:54.373Z,48.40
2019-04-10T10:29:56.031Z,47.80
2019-04-10T10:31:56.963Z,48.37
2019-04-10T10:33:58.378Z,48.28
2019-04-10T10:35:59.941Z,48.56
2019-04-10T10:38:01.559Z,48.50
2019-04-10T10:40:03.491Z,49.01
2019-04-10T10:42:05.477Z,49.59
2019-04-10T10:44:06.880Z,50.18
2019-04-10T10:46:09.232Z,50.36
2019-04-10T10:48:09.882Z,50.46
2019-04-10T10:50:11.538Z,50.59
2019-04-10T10:52:13.268Z,50.84
2019-04-10T10:54:14.780Z,51.02
2019-04-10T10:56:16.397Z,50.93
2019-04-10T10:58:17.993Z,50.83
2019-04-10T11:00:19.604Z,50.96
2019-04-10T11:02:21.313Z,49.59
2019-04-10T11:04:23.238Z,48.58
2019-04-10T11:06:25.201Z,48.10
2019-04-10T11:08:26.957Z,48.34
2019-04-10T11:10:29.769Z,47.97
2019-04-10T11:12:30.491Z,48.64
2019-04-10T11:14:31.897Z,48.75
2019-04-10T11:16:33.934Z,48.93
2019-04-10T11:18:35.335Z,49.62
2019-04-10T11:20:37.062Z,48.76
2019-04-10T11:22:39.721Z,48.29
2019-04-10T11:24:41.273Z,47.97
2019-04-10T11:26:42.623Z,48.17
2019-04-10T11:28:43.622Z,49.41
2019-04-10T11:30:46.965Z,49.91
2019-04-10T11:32:48.427Z,49.78
2019-04-10T11:34:49.300Z,49.74
2019-04-10T11:37:11.081Z,49.28
2019-04-10T11:38:54.907Z,49.19
2019-04-10T11:40:57.348Z,49.33
2019-04-10T11:42:57.477Z,48.57
2019-04-10T11:44:57.476Z,48.63
2019-04-10T11:46:59.216Z,48.30
2019-04-10T11:49:01.017Z,48.85
2019-04-10T11:51:03.202Z,49.77
2019-04-10T11:53:04.521Z,49.90
2019-04-10T11:55:12.728Z,50.17
2019-04-10T11:57:07.606Z,50.49
2019-04-10T11:59:11.671Z,50.38
2019-04-10T12:01:10.825Z,50.35
2019-04-10T12:03:12.875Z,50.35
2019-04-10T12:05:19.090Z,50.15
2019-04-10T12:07:52.923Z,50.00
2019-04-10T12:11:20.639Z,50.36
2019-04-10T12:13:21.990Z,50.16
2019-04-10T12:15:23.895Z,50.08
2019-04-10T12:17:25.550Z,50.20
2019-04-10T12:19:26.955Z,50.03
2019-04-10T12:21:28.019Z,49.94
2019-04-10T12:23:29.697Z,49.79
2019-04-10T12:25:31.361Z,49.76
2019-04-10T12:27:33.521Z,49.79
2019-04-10T12:29:34.998Z,49.76
2019-04-10T12:31:36.472Z,49.12
2019-04-10T12:33:38.089Z,48.71
2019-04-10T12:35:40.317Z,49.21
2019-04-10T12:37:43.299Z,49.51
2019-04-10T12:39:43.957Z,49.44
2019-04-10T12:41:45.868Z,49.21
2019-04-10T12:43:47.407Z,49.05
2019-04-10T12:45:49.013Z,49.28
2019-04-10T12:47:50.595Z,49.44
2019-04-10T12:49:52.249Z,49.55
2019-04-10T12:51:54.118Z,49.85
2019-04-10T12:53:56.162Z,49.92
2019-04-10T12:55:57.743Z,49.80
2019-04-10T12:58:06.715Z,49.94
2019-04-10T13:00:04.048Z,50.13
2019-04-10T13:02:02.869Z,50.16
2019-04-10T13:04:05.335Z,50.19
2019-04-10T13:06:05.738Z,50.40
2019-04-10T13:08:19.176Z,50.33
2019-04-10T13:10:09.119Z,50.34
2019-04-10T13:12:11.079Z,50.31
2019-04-10T13:14:12.581Z,50.32
2019-04-10T13:16:14.193Z,50.28
2019-04-10T13:18:16.319Z,50.26
2019-04-10T13:20:17.714Z,50.48
2019-04-10T13:22:20.056Z,50.61
2019-04-10T13:24:21.531Z,50.58
2019-04-10T13:26:22.400Z,50.68
2019-04-10T13:28:23.992Z,50.71
2019-04-10T13:30:25.738Z,50.67
2019-04-10T13:32:27.679Z,50.54
2019-04-10T13:34:29.160Z,50.46
2019-04-10T13:36:31.386Z,50.47
2019-04-10T13:38:34.436Z,50.46
2019-04-10T13:40:35.073Z,50.48
2019-04-10T13:42:37.020Z,50.46
2019-04-10T13:44:38.380Z,50.48
2019-04-10T13:46:39.133Z,50.44
2019-04-10T13:48:41.695Z,50.43
2019-04-10T13:50:43.175Z,50.16
2019-04-10T13:52:44.686Z,50.09
2019-04-10T13:54:45.841Z,50.12
2019-04-10T13:56:47.930Z,49.92
2019-04-10T13:58:49.132Z,49.89
2019-04-10T14:00:52.123Z,50.00
2019-04-10T14:02:52.405Z,50.11
2019-04-10T14:04:53.995Z,50.16
2019-04-10T14:06:55.692Z,50.64
2019-04-10T14:09:12.080Z,49.78
2019-04-10T14:10:58.971Z,49.69
2019-04-10T14:13:00.568Z,49.85
2019-04-10T14:15:02.196Z,49.95
2019-04-10T14:17:05.524Z,50.03
2019-04-10T14:19:06.374Z,50.08
2019-04-10T14:21:12.409Z,50.25
2019-04-10T14:23:10.730Z,50.52
2019-04-10T14:25:27.441Z,50.58
2019-04-10T14:27:30.088Z,50.76
2019-04-10T14:29:30.549Z,50.90
2019-04-10T14:31:32.263Z,50.89
2019-04-10T14:33:33.877Z,50.71
2019-04-10T14:35:35.613Z,50.62
2019-04-10T14:37:37.905Z,50.58
2019-04-10T14:39:39.588Z,50.62
2019-04-10T14:41:40.565Z,50.69
2019-04-10T14:43:43.821Z,50.73
2019-04-10T14:45:43.856Z,50.74
2019-04-10T14:47:45.583Z,51.03
2019-04-10T14:49:47.248Z,51.03
2019-04-10T14:51:48.806Z,50.95
2019-04-10T14:53:51.118Z,50.88
2019-04-10T14:55:52.149Z,50.84
2019-04-10T14:57:54.847Z,50.73
2019-04-10T14:59:56.035Z,50.73
2019-04-10T15:01:57.979Z,50.69
2019-04-10T15:03:58.709Z,50.62
2019-04-10T15:06:01.387Z,50.80
2019-04-10T15:08:02.009Z,50.91
2019-04-10T15:10:03.676Z,51.10
2019-04-10T15:12:05.272Z,51.17
2019-04-10T15:14:07.695Z,51.18
2019-04-10T15:16:09.127Z,51.12
2019-04-10T15:18:10.853Z,51.25
2019-04-10T15:20:13.269Z,51.42
2019-04-10T15:22:25.414Z,51.51
2019-04-10T15:24:26.026Z,51.53
2019-04-10T15:26:28.160Z,51.52
2019-04-10T15:28:29.715Z,51.52
2019-04-10T15:30:31.012Z,51.44
2019-04-10T15:32:33.637Z,51.35
2019-04-10T15:34:35.318Z,51.20
2019-04-10T15:36:35.985Z,51.08
2019-04-10T15:38:37.968Z,50.73
2019-04-10T15:40:39.240Z,50.53
2019-04-10T15:42:40.857Z,50.26
2019-04-10T15:44:42.799Z,50.12
2019-04-10T15:46:44.188Z,50.08
2019-04-10T15:48:46.082Z,50.08
2019-04-10T15:50:47.703Z,50.03
2019-04-10T15:52:49.333Z,50.15
2019-04-10T15:54:53.431Z,50.32
2019-04-10T15:56:52.470Z,50.49
2019-04-10T15:58:54.128Z,50.68
2019-04-10T16:00:55.721Z,50.74
2019-04-10T16:02:57.394Z,50.77
2019-04-10T16:04:59.410Z,50.88
2019-04-10T16:07:00.736Z,51.04
2019-04-10T16:09:02.996Z,50.91
2019-04-10T16:11:07.599Z,50.81
2019-04-10T16:13:14.524Z,50.68
2019-04-10T16:15:15.893Z,50.63
2019-04-10T16:17:22.898Z,50.51
2019-04-10T16:19:36.745Z,50.48
2019-04-10T16:21:38.199Z,50.34
2019-04-10T16:23:40.396Z,50.34
2019-04-10T16:25:47.433Z,50.25
2019-04-10T16:27:50.001Z,50.32
2019-04-10T16:29:51.055Z,50.34
2019-04-10T16:31:53.231Z,50.28
2019-04-10T16:33:54.627Z,50.22
2019-04-10T16:35:56.814Z,50.35
2019-04-10T16:37:58.140Z,50.49
2019-04-10T16:40:04.010Z,50.50
2019-04-10T16:42:00.661Z,51.07
2019-04-10T16:44:02.520Z,50.00
2019-04-10T16:46:04.904Z,50.02
2019-04-10T16:48:06.425Z,50.31
2019-04-10T16:50:07.199Z,50.38
2019-04-10T16:52:09.170Z,50.38
2019-04-10T16:54:10.554Z,50.48
2019-04-10T16:56:12.099Z,50.62
2019-04-10T16:58:13.816Z,50.63
2019-04-10T17:00:17.112Z,50.59
2019-04-10T17:02:17.907Z,50.53
2019-04-10T17:04:18.958Z,50.44
2019-04-10T17:06:20.430Z,50.34
2019-04-10T17:08:22.082Z,50.33
2019-04-10T17:10:25.988Z,49.66
2019-04-10T17:12:25.423Z,49.71
2019-04-10T17:14:27.168Z,49.65
2019-04-10T17:16:29.397Z,49.73
2019-04-10T17:18:30.852Z,49.75
2019-04-10T17:20:32.902Z,49.75
2019-04-10T17:22:41.830Z,49.77
2019-04-10T17:24:35.522Z,49.87
2019-04-10T17:26:37.179Z,49.91
2019-04-10T17:28:38.736Z,49.84
2019-04-10T17:30:40.333Z,49.91
2019-04-10T17:32:42.657Z,50.01
2019-04-10T17:34:43.623Z,50.06
2019-04-10T17:36:45.293Z,50.16
2019-04-10T17:38:46.877Z,50.30
2019-04-10T17:40:51.963Z,50.32
2019-04-10T17:42:50.342Z,50.27
2019-04-10T17:44:51.890Z,50.28
2019-04-10T17:46:53.499Z,50.11
2019-04-10T17:48:55.102Z,50.05
2019-04-10T17:50:57.458Z,50.00
2019-04-10T17:52:58.880Z,50.06
2019-04-10T17:55:00.966Z,50.12
2019-04-10T17:57:02.482Z,50.09
2019-04-10T17:59:03.348Z,50.09
2019-04-10T18:01:04.960Z,50.04
2019-04-10T18:03:07.607Z,50.06
2019-04-10T18:05:08.518Z,50.15
2019-04-10T18:07:10.107Z,50.13
2019-04-10T18:09:11.791Z,50.16
2019-04-10T18:11:14.167Z,50.13
2019-04-10T18:13:14.996Z,50.12
2019-04-10T18:15:16.734Z,50.12
2019-04-10T18:17:18.595Z,50.08
2019-04-10T18:19:21.200Z,50.14
2019-04-10T18:21:22.417Z,50.13
2019-04-10T18:23:23.291Z,50.21
2019-04-10T18:25:25.646Z,50.21
2019-04-10T18:27:26.633Z,50.14
2019-04-10T18:29:28.252Z,50.16
2019-04-10T18:31:29.895Z,50.09
2019-04-10T18:33:31.544Z,50.03
2019-04-10T18:35:33.685Z,50.08
2019-04-10T18:37:35.384Z,50.18
2019-04-10T18:39:36.707Z,50.23
2019-04-10T18:41:38.260Z,50.29
2019-04-10T18:43:40.350Z,50.41
2019-04-10T18:45:53.909Z,50.58
2019-04-10T18:47:44.046Z,50.71
2019-04-10T18:49:45.505Z,50.88
2019-04-10T18:51:46.560Z,50.96
2019-04-10T18:53:49.112Z,50.98
2019-04-10T18:55:49.973Z,50.95
2019-04-10T18:57:51.602Z,50.93
2019-04-10T18:59:53.856Z,50.88
2019-04-10T19:01:59.787Z,50.79
2019-04-10T19:04:04.234Z,50.71
2019-04-10T19:06:04.598Z,50.64
2019-04-10T19:08:05.567Z,50.65
2019-04-10T19:10:08.128Z,50.56
2019-04-10T19:12:08.889Z,50.44
2019-04-10T19:14:10.520Z,50.33
2019-04-10T19:16:12.979Z,50.29
2019-04-10T19:18:13.856Z,50.14
2019-04-10T19:20:15.727Z,50.15
2019-04-10T19:22:18.074Z,50.15
2019-04-10T19:24:19.692Z,50.01
2019-04-10T19:26:21.116Z,49.86
2019-04-10T19:28:33.427Z,49.33
2019-04-10T19:30:35.212Z,49.13
2019-04-10T19:32:35.645Z,49.15
2019-04-10T19:34:37.265Z,49.16
2019-04-10T19:36:39.816Z,49.74
2019-04-10T19:38:41.184Z,49.56
2019-04-10T19:40:42.212Z,49.59
2019-04-10T19:42:43.904Z,50.59
2019-04-10T19:44:45.597Z,49.95
2019-04-10T19:46:48.122Z,49.91
2019-04-10T19:48:50.752Z,50.48
2019-04-10T19:50:50.421Z,48.86
2019-04-10T19:52:52.840Z,48.61
2019-04-10T19:57:08.851Z,49.26
2019-04-10T19:59:10.318Z,48.52
2019-04-10T20:01:11.160Z,48.85
2019-04-10T20:03:13.244Z,49.84
2019-04-10T20:05:14.987Z,50.52
2019-04-10T20:07:16.602Z,50.06
2019-04-10T20:09:17.746Z,53.53
2019-04-10T20:11:31.357Z,49.24
2019-04-10T20:13:21.024Z,49.09
2019-04-10T20:15:22.611Z,48.73
2019-04-10T20:17:24.232Z,48.31
2019-04-10T20:19:26.626Z,48.64
2019-04-10T20:21:27.999Z,49.09
2019-04-10T20:23:29.941Z,50.06
2019-04-10T20:25:30.812Z,50.55
2019-04-10T20:27:32.447Z,50.70
2019-04-10T20:29:35.005Z,50.78
2019-04-10T20:31:35.666Z,49.98
2019-04-10T20:33:37.258Z,49.13
2019-04-10T20:35:38.867Z,49.55
2019-04-10T20:37:40.462Z,48.51
2019-04-10T20:39:42.264Z,49.13
2019-04-10T20:41:51.017Z,48.47
2019-04-10T20:43:45.452Z,48.22
2019-04-10T20:45:47.586Z,48.45
2019-04-10T20:47:49.771Z,47.75
2019-04-10T20:49:51.162Z,48.57
2019-04-10T20:51:53.633Z,48.97
2019-04-10T20:53:54.338Z,49.00
2019-04-10T20:55:55.945Z,49.13
2019-04-10T20:57:57.656Z,49.18
2019-04-10T20:59:59.526Z,49.11
2019-04-10T21:02:01.956Z,49.10
2019-04-10T21:04:03.136Z,48.60
2019-04-10T21:06:04.729Z,48.76
2019-04-10T21:08:05.950Z,49.27
2019-04-10T21:10:08.604Z,49.77
2019-04-10T21:12:12.830Z,50.22
2019-04-10T21:14:12.181Z,50.28
2019-04-10T21:16:13.393Z,50.26
2019-04-10T21:18:15.234Z,50.19
2019-04-10T21:20:15.983Z,50.15
2019-04-10T21:22:17.548Z,50.41
2019-04-10T21:24:19.182Z,50.37
2019-04-10T21:26:21.953Z,50.42
2019-04-10T21:28:23.028Z,50.37
2019-04-10T21:30:30.251Z,50.68
2019-04-10T21:32:36.400Z,49.59
2019-04-10T21:34:39.100Z,49.37
2019-04-10T21:36:39.654Z,50.09
2019-04-10T21:38:41.238Z,49.71
2019-04-10T21:40:43.324Z,49.53
2019-04-10T21:42:45.424Z,49.81
2019-04-10T21:44:46.204Z,49.87
2019-04-10T21:46:48.596Z,50.14
2019-04-10T21:48:49.512Z,50.11
2019-04-10T21:50:51.771Z,50.03
2019-04-10T21:52:52.901Z,50.09
2019-04-10T21:54:57.822Z,49.13
2019-04-10T21:56:56.150Z,48.72
2019-04-10T21:58:57.727Z,49.63
2019-04-10T22:01:01.867Z,50.24
2019-04-10T22:03:03.471Z,50.87
2019-04-10T22:05:05.985Z,51.33
2019-04-10T22:07:25.706Z,51.41
2019-04-10T22:09:32.188Z,51.51
2019-04-10T22:11:34.008Z,51.83
2019-04-10T22:13:35.796Z,51.86
2019-04-10T22:15:37.712Z,52.27
2019-04-10T22:17:40.398Z,52.28
2019-04-10T22:19:41.011Z,52.40
2019-04-10T22:21:42.598Z,52.65
2019-04-10T22:23:44.755Z,52.47
2019-04-10T22:25:45.962Z,52.73
2019-04-10T22:27:47.761Z,52.52
2019-04-10T22:29:49.111Z,52.49
2019-04-10T22:31:51.339Z,52.43
2019-04-10T22:33:52.370Z,52.68
2019-04-10T22:35:53.946Z,52.82
2019-04-10T22:37:56.655Z,52.80
2019-04-10T22:39:57.176Z,52.96
2019-04-10T22:41:58.990Z,53.09
2019-04-10T22:44:01.192Z,53.18
2019-04-10T22:46:02.596Z,53.23
2019-04-10T22:48:04.183Z,53.32
2019-04-10T22:50:05.380Z,53.00
2019-04-10T22:52:06.963Z,53.22
2019-04-10T22:54:08.590Z,53.21
2019-04-10T22:56:10.889Z,53.16
2019-04-10T22:58:12.817Z,53.24
2019-04-10T23:00:13.854Z,53.30
2019-04-10T23:02:16.486Z,53.21
2019-04-10T23:04:17.750Z,53.42
2019-04-10T23:06:18.473Z,53.57
2019-04-10T23:08:20.096Z,53.66
2019-04-10T23:10:21.698Z,53.54
2019-04-10T23:12:24.404Z,53.77
2019-04-10T23:14:24.946Z,53.84
2019-04-10T23:16:26.531Z,53.68
2019-04-10T23:18:28.135Z,53.66
2019-04-10T23:20:30.021Z,53.70
2019-04-10T23:22:31.424Z,53.92
2019-04-10T23:24:33.811Z,53.96
2019-04-10T23:26:35.390Z,54.09
2019-04-10T23:28:36.332Z,54.30
2019-04-10T23:30:39.127Z,53.95
2019-04-10T23:32:39.648Z,54.24
2019-04-10T23:34:41.255Z,54.11
2019-04-10T23:36:42.864Z,54.39
2019-04-10T23:38:44.448Z,54.33
2019-04-10T23:40:47.210Z,54.44
2019-04-10T23:42:48.295Z,54.59
2019-04-10T23:44:49.361Z,54.63
2019-04-10T23:46:51.697Z,54.71
2019-04-10T23:48:53.001Z,55.04
2019-04-10T23:50:54.528Z,55.17
2019-04-10T23:52:56.194Z,55.33
2019-04-10T23:54:57.655Z,55.67
2019-04-10T23:56:59.267Z,55.84
2019-04-10T23:59:00.875Z,55.96
